首页
METAR-TAF:

METAR-TAF

机场 :

奥兰多国际机场

奥兰多, 佛罗里达州, 美国

纬度: 28-25-02N, 经度: 081-19-30W, 海拔: 29米

当前天气观测

该预报发布于31分钟前的15:53 UTC
风速8节,风向东转东北
温度 30°C
湿度 49%
气压 1018 hPa
能見度: 16.1公里
少量云层高于4100英尺
多云层高于5500英尺

METAR: KMCO 231553Z 06008KT 10SM FEW041 BKN055 30/18 A3005 RMK AO2 SLP174 T03000183

时间: 12:24 (16:24 UTC)

预报

该预报发布于34分钟前的15:50 UTC
预报有效从23日的 16点(UTC)到 24日的 18点(UTC)
风速11节,风向东北
能見度: 10公里
散云层高于4000英尺
多云层高于5000英尺
从 24日的 0100点(UTC)
风速4节,风向北转东北
能見度: 10公里
少量云层高于4000英尺

TAF: KMCO 231550Z 2316/2418 05011KT P6SM SCT040 BKN050 FM240100 03004KT P6SM FEW040

超过4000个机场的气象观测和天气预报(METAR&TAF报告)。

可查询的气象台以黄色和红色小点在地图上表示。

将鼠标移到小点上方,可查看气象台名称。

然后点击查看天气观测和预报。

如需切换地图:点击带黑十字的绿色按钮放大地图;点击带横线的绿色按钮缩小地图;或者点击绿色箭头查看邻近地区的地图。


METAR-TAF: